Time;durP1;ratioP1;P1;durP2;ratioP2;P2;SDS_P1;SDS_P2;PMS_P1;PMS_P2;Temp;Humidity;BMP_temperature;BMP_pressure;BME280_temperature;BME280_humidity;BME280_pressure;Samples;Min_cycle;Max_cycle;Signal;HPM_P1;HPM_P2
2021/10/21 00:00:11;;;;;;;11.45;7.40;;;;;;;14.80;67.24;98965.48;1756683;81;21009;-79
2021/10/21 00:02:40;;;;;;;9.18;6.80;;;;;;;14.80;67.29;98958.85;1742648;81;20994;-81
2021/10/21 00:05:08;;;;;;;11.95;7.47;;;;;;;14.81;67.32;98957.87;1748302;81;20958;-80
2021/10/21 00:07:35;;;;;;;11.88;6.75;;;;;;;14.83;67.25;98948.39;1754927;81;20926;-80
2021/10/21 00:10:02;;;;;;;8.93;7.08;;;;;;;14.83;67.25;98943.91;1768491;81;21026;-80
2021/10/21 00:12:30;;;;;;;10.53;8.35;;;;;;;14.83;67.23;98935.11;1767611;81;21030;-81
2021/10/21 00:14:56;;;;;;;9.28;7.95;;;;;;;14.84;67.26;98934.11;1768368;81;20998;-80
2021/10/21 00:17:22;;;;;;;9.95;8.13;;;;;;;14.83;67.23;98930.62;1764395;81;21005;-80
2021/10/21 00:19:48;;;;;;;10.48;8.20;;;;;;;14.83;67.26;98931.12;1748130;81;21459;-81
2021/10/21 00:22:14;;;;;;;9.95;6.65;;;;;;;14.81;67.27;98934.45;1757131;81;21563;-80
2021/10/21 00:24:40;;;;;;;9.80;8.28;;;;;;;14.79;67.24;98928.00;1747982;81;21044;-81
2021/10/21 00:27:06;;;;;;;13.30;9.10;;;;;;;14.78;67.28;98913.07;1759607;81;20981;-80
2021/10/21 00:29:33;;;;;;;11.08;7.80;;;;;;;14.76;67.35;98904.44;1768101;81;21069;-81
2021/10/21 00:31:59;;;;;;;10.65;7.83;;;;;;;14.76;67.30;98893.82;1757036;81;21057;-80
2021/10/21 00:34:25;;;;;;;12.33;7.92;;;;;;;14.74;67.39;98894.01;1748025;81;21092;-79
2021/10/21 00:36:50;;;;;;;12.35;8.33;;;;;;;14.71;67.44;98896.19;1757522;81;20977;-81
2021/10/21 00:39:16;;;;;;;8.00;6.65;;;;;;;14.70;67.48;98888.69;1768600;81;20970;-81
2021/10/21 00:41:42;;;;;;;7.72;6.65;;;;;;;14.69;67.53;98889.70;1767984;81;21072;-80
2021/10/21 00:44:12;;;;;;;9.23;7.00;;;;;;;14.68;67.58;98886.73;1767892;81;21493;-81
2021/10/21 00:46:40;;;;;;;9.15;7.90;;;;;;;14.68;67.60;98886.73;1766829;81;20990;-80
2021/10/21 00:49:08;;;;;;;10.40;8.45;;;;;;;14.68;67.58;98879.27;1768601;81;21037;-79
2021/10/21 00:51:36;;;;;;;10.82;8.68;;;;;;;14.69;67.51;98877.75;1768652;81;21009;-81
2021/10/21 00:54:04;;;;;;;11.40;9.83;;;;;;;14.70;67.64;98876.74;1767241;81;21021;-80
2021/10/21 00:56:32;;;;;;;9.88;8.20;;;;;;;14.71;67.55;98879.75;1767912;81;21033;-80
2021/10/21 00:58:58;;;;;;;11.60;7.97;;;;;;;14.72;67.63;98869.45;1763739;81;20961;-80
2021/10/21 01:01:28;;;;;;;9.55;7.97;;;;;;;14.73;67.68;98872.42;1757875;81;20993;-80
2021/10/21 01:03:52;;;;;;;12.50;9.33;;;;;;;14.73;67.67;98863.63;1765617;81;21006;-79
2021/10/21 01:06:19;;;;;;;11.43;7.85;;;;;;;14.72;67.72;98860.66;1747880;81;21315;-80
2021/10/21 01:08:45;;;;;;;11.90;7.30;;;;;;;14.73;67.73;98860.47;1747985;81;21485;-79
2021/10/21 01:11:14;;;;;;;9.25;7.55;;;;;;;14.72;67.78;98861.48;1748392;81;20981;-80
2021/10/21 01:13:40;;;;;;;12.05;6.80;;;;;;;14.73;67.73;98857.81;1748162;81;21477;-80
2021/10/21 01:16:12;;;;;;;8.73;7.12;;;;;;;14.73;67.78;98854.34;1751555;81;20946;-81
2021/10/21 01:18:41;;;;;;;7.10;6.40;;;;;;;14.73;67.87;98854.34;1770354;81;20993;-81
2021/10/21 01:21:08;;;;;;;8.68;7.28;;;;;;;14.72;67.83;98865.97;1773512;81;21001;-80
2021/10/21 01:23:36;;;;;;;12.85;7.00;;;;;;;14.72;67.93;98860.66;1757727;81;21024;-79
2021/10/21 01:26:05;;;;;;;10.50;7.50;;;;;;;14.71;68.01;98856.36;1754317;81;20958;-80
2021/10/21 01:28:31;;;;;;;10.48;7.53;;;;;;;14.69;68.02;98860.50;1768397;81;21554;-79
2021/10/21 01:30:57;;;;;;;9.40;7.47;;;;;;;14.69;68.05;98853.04;1768581;81;21464;-79
2021/10/21 01:33:23;;;;;;;10.65;7.90;;;;;;;14.69;68.06;98849.87;1752675;81;20998;-80
2021/10/21 01:35:49;;;;;;;13.78;8.38;;;;;;;14.70;68.05;98837.42;1748383;81;21495;-80
2021/10/21 01:38:15;;;;;;;9.55;6.67;;;;;;;14.73;68.11;98824.63;1748295;81;20961;-80
2021/10/21 01:40:41;;;;;;;9.10;7.15;;;;;;;14.74;68.05;98818.34;1748227;81;21022;-79
2021/10/21 01:43:08;;;;;;;10.45;6.62;;;;;;;14.76;68.13;98807.53;1761205;81;21018;-80
2021/10/21 01:45:34;;;;;;;8.75;6.67;;;;;;;14.77;68.15;98803.86;1751387;81;21499;-79
2021/10/21 01:48:02;;;;;;;10.60;7.53;;;;;;;14.78;68.06;98801.55;1772095;81;20981;-79
2021/10/21 01:50:30;;;;;;;8.05;7.17;;;;;;;14.78;68.13;98791.75;1773951;81;21019;-79
2021/10/21 01:52:56;;;;;;;7.83;6.65;;;;;;;14.79;68.12;98784.61;1762519;81;21536;-80
2021/10/21 01:55:23;;;;;;;8.18;6.80;;;;;;;14.80;68.18;98786.76;1748266;81;21472;-80
2021/10/21 01:57:49;;;;;;;9.33;7.70;;;;;;;14.81;68.20;98783.09;1748959;81;21531;-80
2021/10/21 02:00:18;;;;;;;8.95;7.25;;;;;;;14.80;68.15;98786.25;1755030;81;20958;-80
2021/10/21 02:02:46;;;;;;;10.03;7.42;;;;;;;14.81;68.22;98780.44;1734147;81;20922;-80
2021/10/21 02:05:14;;;;;;;8.58;7.20;;;;;;;14.83;68.32;98775.79;1749907;81;21009;-80
2021/10/21 02:07:41;;;;;;;9.30;7.15;;;;;;;14.84;68.25;98766.81;1748032;81;20990;-80
2021/10/21 02:10:14;;;;;;;9.93;7.03;;;;;;;14.84;68.31;98768.14;1748098;81;20954;-78
2021/10/21 02:12:40;;;;;;;9.35;7.40;;;;;;;14.86;68.19;98763.48;1747534;81;21530;-79
2021/10/21 02:15:07;;;;;;;8.00;6.53;;;;;;;14.88;68.19;98756.19;1753353;81;21013;-80
2021/10/21 02:17:33;;;;;;;9.43;6.65;;;;;;;14.89;68.24;98761.30;1768414;81;20955;-79
2021/10/21 02:19:59;;;;;;;8.68;7.10;;;;;;;14.91;68.25;98765.13;1759326;81;21253;-80
2021/10/21 02:22:26;;;;;;;7.58;6.67;;;;;;;14.93;68.16;98772.39;1754702;81;22144;-79
2021/10/21 02:24:53;;;;;;;8.90;6.67;;;;;;;14.94;68.25;98766.10;1761331;81;21005;-80
2021/10/21 02:27:19;;;;;;;8.60;6.40;;;;;;;14.94;68.08;98759.47;1749267;81;20963;-79
2021/10/21 02:29:45;;;;;;;8.70;6.33;;;;;;;14.96;68.09;98764.08;1730798;81;21571;-79
2021/10/21 02:32:11;;;;;;;8.70;7.42;;;;;;;14.98;67.96;98759.42;1748511;81;21037;-80
2021/10/21 02:34:37;;;;;;;7.25;6.08;;;;;;;15.00;67.81;98742.31;1748633;81;20970;-78
2021/10/21 02:37:03;;;;;;;8.08;7.12;;;;;;;15.03;67.83;98737.63;1749929;81;21008;-79
2021/10/21 02:39:29;;;;;;;8.73;6.50;;;;;;;15.05;67.64;98735.63;1748638;81;21550;-79
2021/10/21 02:41:55;;;;;;;8.95;7.10;;;;;;;15.06;67.63;98731.96;1747971;81;21072;-78
2021/10/21 02:44:21;;;;;;;8.28;6.45;;;;;;;15.08;67.63;98714.03;1764786;81;21460;-78
2021/10/21 02:46:47;;;;;;;9.83;7.95;;;;;;;15.08;67.48;98707.38;1768384;81;21004;-78
2021/10/21 02:49:13;;;;;;;11.25;7.08;;;;;;;15.09;67.51;98705.05;1767218;81;21393;-78
2021/10/21 02:51:40;;;;;;;8.70;7.45;;;;;;;15.09;67.56;98694.42;1767134;81;21018;-78
2021/10/21 02:54:07;;;;;;;10.08;7.22;;;;;;;15.09;67.44;98679.30;1754107;81;21032;-79
2021/10/21 02:56:34;;;;;;;8.73;6.58;;;;;;;15.11;67.38;98674.64;1748613;81;21010;-80
2021/10/21 02:59:00;;;;;;;7.83;6.35;;;;;;;15.10;67.46;98676.95;1754622;81;21511;-80
2021/10/21 03:01:26;;;;;;;12.35;7.25;;;;;;;15.10;67.37;98668.98;1765134;81;21568;-79
2021/10/21 03:03:52;;;;;;;8.80;7.28;;;;;;;15.10;67.59;98666.84;1757193;81;20950;-79
2021/10/21 03:06:18;;;;;;;10.98;7.03;;;;;;;15.09;67.55;98663.36;1750623;81;20966;-80
2021/10/21 03:08:44;;;;;;;10.35;7.17;;;;;;;15.09;67.38;98659.88;1761052;81;20986;-79
2021/10/21 03:11:10;;;;;;;10.28;7.62;;;;;;;15.09;67.47;98641.29;1767288;81;20954;-79
2021/10/21 03:13:36;;;;;;;10.32;6.72;;;;;;;15.09;67.49;98639.96;1763651;81;21026;-82
2021/10/21 03:16:02;;;;;;;11.10;7.62;;;;;;;15.08;67.48;98639.14;1753057;81;20969;-79
2021/10/21 03:18:28;;;;;;;8.93;6.75;;;;;;;15.09;67.47;98631.48;1756260;81;20907;-78
2021/10/21 03:20:54;;;;;;;9.50;7.20;;;;;;;15.11;67.45;98638.78;1763300;81;20981;-80
2021/10/21 03:23:24;;;;;;;10.38;7.58;;;;;;;15.12;67.45;98636.44;1760575;81;20962;-79
2021/10/21 03:25:48;;;;;;;11.15;7.17;;;;;;;15.14;67.53;98639.75;1747820;81;20962;-81
2021/10/21 03:28:14;;;;;;;9.38;7.72;;;;;;;15.14;67.46;98626.97;1747893;81;21052;-79
2021/10/21 03:30:40;;;;;;;9.43;7.60;;;;;;;15.15;67.46;98624.13;1749704;81;21037;-80
2021/10/21 03:33:07;;;;;;;8.88;7.55;;;;;;;15.16;67.60;98624.43;1748113;81;20981;-80
2021/10/21 03:35:33;;;;;;;9.55;8.00;;;;;;;15.18;67.40;98617.12;1748365;81;21499;-79
2021/10/21 03:37:59;;;;;;;9.98;7.12;;;;;;;15.19;67.41;98605.98;1748244;81;21046;-80
2021/10/21 03:40:25;;;;;;;9.38;6.90;;;;;;;15.20;67.54;98591.67;1761741;81;21425;-79
2021/10/21 03:42:51;;;;;;;14.65;12.37;;;;;;;15.20;67.49;98581.91;1762886;81;21022;-78
2021/10/21 03:45:16;;;;;;;13.90;10.80;;;;;;;15.20;67.49;98575.73;1758508;81;21016;-80
2021/10/21 03:47:42;;;;;;;8.63;7.53;;;;;;;15.20;67.56;98569.09;1756492;81;20958;-79
2021/10/21 03:50:09;;;;;;;9.05;7.65;;;;;;;15.20;67.56;98579.25;1745434;82;20979;-80
2021/10/21 03:52:36;;;;;;;11.25;7.55;;;;;;;15.19;67.67;98572.77;1756158;81;20966;-80
2021/10/21 03:55:02;;;;;;;7.62;6.72;;;;;;;15.19;67.69;98572.77;1768870;81;21041;-80
2021/10/21 03:57:28;;;;;;;10.28;7.75;;;;;;;15.20;67.74;98575.73;1767282;81;20958;-80
2021/10/21 03:59:54;;;;;;;10.43;6.97;;;;;;;15.19;67.77;98584.73;1768677;81;20951;-80
2021/10/21 04:02:20;;;;;;;11.70;6.95;;;;;;;15.19;67.84;98580.23;1758643;81;21033;-78
2021/10/21 04:04:46;;;;;;;8.70;7.00;;;;;;;15.19;67.76;98589.53;1748338;81;21572;-79
2021/10/21 04:07:12;;;;;;;8.80;6.72;;;;;;;15.22;67.76;98586.51;1748131;81;21491;-78
2021/10/21 04:09:39;;;;;;;9.83;6.87;;;;;;;15.24;67.72;98571.22;1748024;81;21014;-79
2021/10/21 04:12:05;;;;;;;9.03;7.50;;;;;;;15.25;67.78;98602.59;1752496;81;20998;-80
2021/10/21 04:14:31;;;;;;;9.60;7.62;;;;;;;15.28;67.74;98603.56;1764556;81;20974;-80
2021/10/21 04:16:57;;;;;;;8.23;7.40;;;;;;;15.29;67.71;98597.73;1747971;82;21518;-80
2021/10/21 04:19:24;;;;;;;9.20;7.53;;;;;;;15.30;67.88;98615.32;1748234;81;20986;-80
2021/10/21 04:21:50;;;;;;;9.10;7.22;;;;;;;15.29;67.91;98623.80;1748187;81;21029;-80
2021/10/21 04:24:16;;;;;;;9.95;7.62;;;;;;;15.28;68.12;98620.02;1767169;81;21469;-79
2021/10/21 04:26:42;;;;;;;12.80;7.62;;;;;;;15.29;68.36;98605.71;1767315;81;20966;-80
2021/10/21 04:29:08;;;;;;;11.78;8.60;;;;;;;15.27;68.66;98629.82;1768922;81;20938;-80
2021/10/21 04:31:34;;;;;;;11.70;9.23;;;;;;;15.24;70.08;98637.64;1768643;81;21460;-81
2021/10/21 04:34:00;;;;;;;13.30;10.08;;;;;;;15.15;71.31;98623.30;1754932;81;21041;-81
2021/10/21 04:36:26;;;;;;;14.07;10.10;;;;;;;14.97;72.70;98637.76;1748216;82;20967;-81
2021/10/21 04:38:52;;;;;;;13.55;10.30;;;;;;;14.80;73.28;98634.08;1748134;81;20946;-81
2021/10/21 04:41:18;;;;;;;16.55;11.38;;;;;;;14.62;73.98;98623.29;1748305;81;21044;-81
2021/10/21 04:43:44;;;;;;;11.22;9.93;;;;;;;14.45;74.85;98631.03;1748148;81;21006;-81
2021/10/21 04:46:10;;;;;;;11.75;9.75;;;;;;;14.26;75.30;98588.55;1748225;82;21033;-81
2021/10/21 04:48:36;;;;;;;14.63;10.65;;;;;;;14.12;76.20;98584.02;1748184;81;21492;-80
2021/10/21 04:51:02;;;;;;;12.58;11.20;;;;;;;13.98;76.74;98575.78;1748161;81;20970;-80
2021/10/21 04:53:28;;;;;;;12.05;10.80;;;;;;;13.87;77.15;98568.24;1748173;82;21033;-80
2021/10/21 04:55:54;;;;;;;12.43;11.12;;;;;;;13.78;77.62;98551.55;1748229;81;21021;-80
2021/10/21 04:58:20;;;;;;;13.90;12.37;;;;;;;13.71;78.07;98546.63;1748146;82;21030;-80
2021/10/21 05:00:46;;;;;;;13.75;11.20;;;;;;;13.63;78.53;98543.22;1748210;82;20997;-80
2021/10/21 05:03:13;;;;;;;13.78;10.65;;;;;;;13.55;78.78;98551.51;1748053;81;21037;-81
2021/10/21 05:05:43;;;;;;;29.67;11.95;;;;;;;13.52;78.99;98547.06;1748232;82;21041;-81
2021/10/21 05:08:10;;;;;;;13.80;11.35;;;;;;;13.47;79.16;98533.52;1748105;82;21065;-81
2021/10/21 05:10:36;;;;;;;20.95;12.82;;;;;;;13.43;79.44;98530.91;1748357;81;21068;-80
2021/10/21 05:13:02;;;;;;;17.02;12.80;;;;;;;13.38;79.67;98522.95;1747966;81;20977;-80
2021/10/21 05:15:28;;;;;;;15.95;11.90;;;;;;;13.36;79.98;98514.87;1748277;82;20998;-80
2021/10/21 05:17:55;;;;;;;16.12;12.55;;;;;;;13.32;79.97;98529.44;1747987;81;21066;-81
2021/10/21 05:20:21;;;;;;;17.87;12.18;;;;;;;13.31;80.20;98542.36;1748109;82;20986;-80
2021/10/21 05:22:48;;;;;;;14.45;11.83;;;;;;;13.28;80.44;98538.73;1747761;82;21457;-81
2021/10/21 05:25:15;;;;;;;15.25;12.23;;;;;;;13.27;80.40;98547.69;1748169;82;21005;-80
2021/10/21 05:27:41;;;;;;;12.93;11.43;;;;;;;13.26;80.61;98538.92;1748042;82;21002;-81
2021/10/21 05:30:09;;;;;;;13.90;11.08;;;;;;;13.26;80.75;98527.47;1748182;81;20985;-80
2021/10/21 05:32:36;;;;;;;16.50;12.15;;;;;;;13.24;80.60;98532.10;1747857;82;21089;-80
2021/10/21 05:35:03;;;;;;;18.40;12.25;;;;;;;13.22;80.79;98537.55;1748128;82;21069;-81
2021/10/21 05:37:29;;;;;;;16.17;11.53;;;;;;;13.22;81.01;98542.03;1747954;82;21508;-81
2021/10/21 05:39:55;;;;;;;26.02;17.15;;;;;;;13.20;81.10;98530.80;1748278;81;20997;-80
2021/10/21 05:42:21;;;;;;;19.32;15.28;;;;;;;13.19;81.31;98523.83;1748070;82;21085;-80
2021/10/21 05:44:49;;;;;;;18.45;13.70;;;;;;;13.17;81.36;98529.31;1748263;82;21006;-81
2021/10/21 05:47:16;;;;;;;17.27;14.00;;;;;;;13.15;81.43;98521.53;1747904;81;21053;-80
2021/10/21 05:49:42;;;;;;;16.57;12.45;;;;;;;13.14;81.48;98511.12;1748220;81;20982;-80
2021/10/21 05:52:09;;;;;;;18.77;14.28;;;;;;;13.12;81.55;98500.69;1748109;81;21026;-79
2021/10/21 05:54:35;;;;;;;17.25;13.40;;;;;;;13.13;81.71;98517.42;1748014;82;21089;-80
2021/10/21 05:57:01;;;;;;;14.23;12.30;;;;;;;13.10;81.72;98525.70;1748100;82;21042;-80
2021/10/21 05:59:27;;;;;;;18.25;12.63;;;;;;;13.09;81.78;98512.94;1748271;82;20986;-80
2021/10/21 06:01:54;;;;;;;16.70;12.85;;;;;;;13.09;82.04;98511.61;1748112;82;21464;-79
2021/10/21 06:04:20;;;;;;;18.75;12.20;;;;;;;13.08;81.90;98509.97;1748082;82;21054;-80
2021/10/21 06:06:45;;;;;;;15.30;12.80;;;;;;;13.08;82.00;98504.68;1748077;82;21113;-80
2021/10/21 06:09:11;;;;;;;16.05;12.85;;;;;;;13.07;82.01;98497.74;1748548;81;20982;-80
2021/10/21 06:11:38;;;;;;;14.63;12.53;;;;;;;13.08;82.14;98494.59;1748197;82;20998;-80
2021/10/21 06:14:05;;;;;;;20.20;12.35;;;;;;;13.07;82.20;98488.98;1748386;82;21488;-79
2021/10/21 06:16:33;;;;;;;14.83;12.05;;;;;;;13.07;82.08;98494.27;1748256;82;21627;-79
2021/10/21 06:19:00;;;;;;;15.55;13.00;;;;;;;13.07;82.08;98494.27;1747909;82;21089;-80
2021/10/21 06:21:28;;;;;;;16.50;13.88;;;;;;;13.07;82.29;98490.30;1748194;82;21006;-79
2021/10/21 06:23:55;;;;;;;17.15;13.00;;;;;;;13.05;82.36;98477.72;1748153;82;21030;-79
2021/10/21 06:26:21;;;;;;;21.23;13.50;;;;;;;13.05;82.36;98468.45;1748401;82;20994;-80
2021/10/21 06:28:51;;;;;;;18.80;13.48;;;;;;;13.04;82.16;98481.38;1748135;81;21085;-79
2021/10/21 06:31:19;;;;;;;16.80;13.48;;;;;;;13.06;82.21;98497.89;1748213;82;21041;-78
2021/10/21 06:33:46;;;;;;;17.05;14.55;;;;;;;13.04;82.22;98506.53;1748202;81;21096;-77
2021/10/21 06:36:12;;;;;;;16.57;13.80;;;;;;;13.03;82.19;98504.39;1748384;82;21005;-79
2021/10/21 06:38:39;;;;;;;16.87;13.43;;;;;;;13.03;82.22;98512.80;1748234;81;20990;-79
2021/10/21 06:41:06;;;;;;;15.53;13.40;;;;;;;13.03;82.07;98519.42;1748266;82;21449;-78
2021/10/21 06:43:33;;;;;;;18.50;14.13;;;;;;;13.02;82.14;98520.42;1748133;82;21069;-78
2021/10/21 06:46:01;;;;;;;20.75;15.00;;;;;;;13.02;82.02;98517.78;1748399;81;20981;-79
2021/10/21 06:48:28;;;;;;;20.27;14.93;;;;;;;13.03;82.05;98524.24;1747398;81;21088;-78
2021/10/21 06:50:54;;;;;;;21.17;15.05;;;;;;;13.02;82.08;98517.78;1748184;81;21049;-78
2021/10/21 06:53:20;;;;;;;18.00;14.95;;;;;;;13.02;82.17;98537.13;1748112;82;21503;-79
2021/10/21 06:55:46;;;;;;;18.62;15.15;;;;;;;13.02;82.05;98534.48;1748286;82;21531;-79
2021/10/21 06:58:12;;;;;;;19.27;14.73;;;;;;;13.02;82.09;98527.86;1748357;81;21078;-79
2021/10/21 07:00:41;;;;;;;18.55;15.25;;;;;;;13.03;82.16;98519.42;1748338;81;20978;-79
2021/10/21 07:03:09;;;;;;;16.52;14.75;;;;;;;13.02;82.20;98505.36;1748061;82;21053;-80
2021/10/21 07:05:41;;;;;;;17.95;15.18;;;;;;;13.00;82.31;98480.90;1748204;81;21061;-78
2021/10/21 07:08:10;;;;;;;18.35;16.45;;;;;;;13.00;82.26;98480.90;1748199;82;21037;-79
2021/10/21 07:10:37;;;;;;;18.82;16.67;;;;;;;12.99;82.39;98467.81;1747991;81;21010;-79
2021/10/21 07:13:04;;;;;;;18.70;16.35;;;;;;;13.00;82.42;98465.02;1748070;82;21448;-78
2021/10/21 07:15:33;;;;;;;18.57;15.80;;;;;;;13.00;82.35;98457.57;1748071;82;21099;-79
2021/10/21 07:17:59;;;;;;;20.55;17.90;;;;;;;12.99;82.58;98451.42;1747608;81;21017;-79
2021/10/21 07:20:26;;;;;;;20.50;18.07;;;;;;;13.00;82.72;98472.95;1748294;82;21520;-79
2021/10/21 07:22:52;;;;;;;24.87;19.57;;;;;;;13.00;82.83;98466.34;1748200;81;21005;-80
2021/10/21 07:25:19;;;;;;;21.68;19.23;;;;;;;13.01;82.82;98450.77;1748265;82;21049;-78
2021/10/21 07:27:46;;;;;;;21.07;18.62;;;;;;;13.02;82.82;98448.44;1748101;82;21053;-78
2021/10/21 07:30:13;;;;;;;28.77;17.15;;;;;;;13.02;82.88;98447.11;1748234;82;21033;-79
2021/10/21 07:32:41;;;;;;;19.12;16.95;;;;;;;13.04;82.84;98458.87;1737566;82;21017;-79
2021/10/21 07:35:08;;;;;;;19.67;17.60;;;;;;;13.03;83.11;98459.38;1748412;82;21500;-79
2021/10/21 07:37:35;;;;;;;19.27;16.35;;;;;;;13.04;83.12;98432.39;1747815;81;21018;-79
2021/10/21 07:40:04;;;;;;;18.52;15.80;;;;;;;13.03;83.00;98428.92;1737842;82;20985;-78
2021/10/21 07:42:30;;;;;;;20.25;16.20;;;;;;;13.05;83.03;98422.13;1748229;81;20986;-78
2021/10/21 07:44:57;;;;;;;16.02;14.30;;;;;;;13.04;82.94;98422.63;1748292;82;21041;-80
2021/10/21 07:47:23;;;;;;;16.97;14.80;;;;;;;13.06;83.00;98435.20;1747988;82;21017;-79
2021/10/21 07:49:49;;;;;;;17.73;15.83;;;;;;;13.09;82.90;98422.09;1748209;81;21523;-79
2021/10/21 07:52:17;;;;;;;22.15;15.32;;;;;;;13.11;82.94;98420.92;1748260;82;21017;-79
2021/10/21 07:54:47;;;;;;;16.23;14.50;;;;;;;13.12;82.80;98401.38;1748000;82;21044;-78
2021/10/21 07:57:13;;;;;;;20.43;16.20;;;;;;;13.15;82.84;98420.89;1748090;81;21022;-81
2021/10/21 07:59:41;;;;;;;18.20;14.80;;;;;;;13.18;82.95;98409.64;1748294;82;21038;-80
2021/10/21 08:02:07;;;;;;;20.25;15.13;;;;;;;13.22;82.85;98409.61;1748086;81;21009;-80
2021/10/21 08:04:33;;;;;;;16.48;13.90;;;;;;;13.24;82.76;98408.47;1748551;81;21021;-80
2021/10/21 08:07:00;;;;;;;21.00;14.83;;;;;;;13.28;82.83;98403.65;1747990;82;21314;-80
2021/10/21 08:09:29;;;;;;;22.98;16.65;;;;;;;13.30;82.85;98410.43;1748325;82;20982;-80
2021/10/21 08:11:56;;;;;;;27.07;23.07;;;;;;;13.32;82.80;98400.46;1747764;81;21093;-80
2021/10/21 08:14:22;;;;;;;25.68;21.57;;;;;;;13.35;82.87;98395.31;1748399;81;21492;-79
2021/10/21 08:16:49;;;;;;;18.07;16.00;;;;;;;13.37;82.87;98394.66;1748145;82;21005;-80
2021/10/21 08:19:16;;;;;;;19.35;16.35;;;;;;;13.41;82.81;98393.80;1748272;82;21009;-79
2021/10/21 08:21:45;;;;;;;16.73;14.05;;;;;;;13.44;82.88;98387.64;1748053;82;21009;-79
2021/10/21 08:24:10;;;;;;;17.30;15.20;;;;;;;13.47;82.74;98389.95;1747937;81;21077;-80
2021/10/21 08:26:37;;;;;;;16.07;13.35;;;;;;;13.49;82.72;98376.03;1748120;82;21453;-80
2021/10/21 08:29:04;;;;;;;16.17;13.08;;;;;;;13.52;82.70;98378.80;1747938;82;21021;-81
2021/10/21 08:31:31;;;;;;;13.80;12.13;;;;;;;13.53;82.74;98361.92;1748069;81;21521;-80
2021/10/21 08:33:57;;;;;;;16.37;12.47;;;;;;;13.55;82.74;98354.60;1748264;81;20974;-80
2021/10/21 08:36:23;;;;;;;12.78;11.28;;;;;;;13.58;82.64;98350.27;1748275;81;21021;-81
2021/10/21 08:38:53;;;;;;;14.03;12.18;;;;;;;13.60;82.76;98342.47;1748130;81;21018;-80
2021/10/21 08:41:21;;;;;;;22.65;16.45;;;;;;;13.63;82.86;98348.43;1748035;81;20994;-81
2021/10/21 08:43:47;;;;;;;17.80;15.90;;;;;;;13.65;82.84;98325.20;1748121;81;21033;-82
2021/10/21 08:46:26;;;;;;;17.42;13.22;;;;;;;13.68;82.87;98317.72;1748181;81;21006;-83
2021/10/21 08:49:03;;;;;;;17.07;12.95;;;;;;;13.73;82.89;98326.47;1747846;82;20969;-81
2021/10/21 08:51:31;;;;;;;16.90;15.08;;;;;;;13.75;82.92;98321.28;1748126;81;21035;-80
2021/10/21 08:53:59;;;;;;;18.15;15.90;;;;;;;13.79;82.93;98297.92;1748047;81;21019;-80
2021/10/21 08:56:26;;;;;;;15.75;14.00;;;;;;;13.82;82.97;98289.10;1748082;81;20985;-80
2021/10/21 08:58:55;;;;;;;13.48;10.58;;;;;;;13.86;82.84;98271.00;1747887;81;20968;-80
2021/10/21 09:01:34;;;;;;;11.03;9.15;;;;;;;13.90;82.87;98286.05;1741781;82;21011;-80
2021/10/21 09:08:52;;;;;;;12.10;10.25;;;;;;;14.07;82.55;98285.66;1726841;82;21024;-79
2021/10/21 09:11:23;;;;;;;12.03;9.65;;;;;;;14.15;82.45;98295.38;1742931;82;20986;-81
2021/10/21 09:14:09;;;;;;;10.38;8.63;;;;;;;14.21;82.33;98305.23;1730323;81;21083;-80
2021/10/21 09:16:35;;;;;;;10.23;8.43;;;;;;;14.28;82.14;98311.47;1734580;80;21057;-81
2021/10/21 09:19:10;;;;;;;9.28;7.45;;;;;;;14.37;81.83;98308.20;1737329;80;21151;-80
2021/10/21 09:21:41;;;;;;;11.05;7.78;;;;;;;14.44;81.60;98300.31;1742828;82;21410;-78
2021/10/21 09:24:40;;;;;;;7.92;7.00;;;;;;;14.51;81.37;98295.47;1743745;82;20998;-80
2021/10/21 09:27:19;;;;;;;9.90;6.50;;;;;;;14.60;80.87;98280.74;1742325;82;21021;-81
2021/10/21 09:29:49;;;;;;;9.63;7.80;;;;;;;14.70;80.68;98300.66;1740806;82;21031;-79
2021/10/21 09:32:27;;;;;;;9.70;7.22;;;;;;;14.76;80.26;98303.08;1739208;82;21488;-79
2021/10/21 09:35:02;;;;;;;8.60;6.00;;;;;;;14.81;79.93;98303.36;1745771;82;21026;-81
2021/10/21 09:37:36;;;;;;;10.40;6.70;;;;;;;14.88;80.05;98312.22;1746430;81;21524;-79
2021/10/21 09:40:09;;;;;;;6.20;5.12;;;;;;;14.92;79.72;98301.53;1743691;82;20982;-81
2021/10/21 09:42:39;;;;;;;7.05;5.05;;;;;;;14.97;79.28;98268.60;1739793;82;21484;-78
2021/10/21 09:45:23;;;;;;;7.42;5.30;;;;;;;15.06;78.65;98273.77;1742200;82;20978;-82
2021/10/21 09:47:58;;;;;;;7.00;4.05;;;;;;;15.15;78.53;98264.16;1737766;82;21002;-81
2021/10/21 09:50:43;;;;;;;6.08;4.10;;;;;;;15.24;77.89;98277.63;1742945;82;21311;-82
2021/10/21 09:53:24;;;;;;;6.40;4.50;;;;;;;15.35;77.78;98288.24;1741599;82;21572;-80
2021/10/21 09:56:04;;;;;;;7.17;4.83;;;;;;;15.45;77.43;98291.39;1742212;81;21033;-80
2021/10/21 09:58:33;;;;;;;4.90;4.37;;;;;;;15.53;77.35;98297.09;1742274;81;20981;-81
2021/10/21 10:01:12;;;;;;;5.42;4.37;;;;;;;15.60;76.73;98301.14;1743029;81;21017;-79
2021/10/21 10:03:41;;;;;;;8.00;4.28;;;;;;;15.64;76.73;98293.08;1741375;82;20994;-80
2021/10/21 10:06:08;;;;;;;6.80;4.60;;;;;;;15.69;76.49;98296.00;1738777;82;21615;-80
2021/10/21 10:08:35;;;;;;;6.83;5.12;;;;;;;15.74;76.27;98278.16;1741240;82;20957;-81
2021/10/21 10:11:12;;;;;;;5.22;4.45;;;;;;;15.76;75.86;98267.64;1742260;81;21396;-80
2021/10/21 10:13:46;;;;;;;5.62;4.65;;;;;;;15.80;75.85;98272.88;1741971;82;21068;-80
2021/10/21 10:16:12;;;;;;;7.00;4.87;;;;;;;15.83;75.33;98260.52;1741690;82;21071;-80
2021/10/21 10:18:44;;;;;;;8.50;3.45;;;;;;;15.88;75.66;98267.39;1745491;81;21468;-81
2021/10/21 10:21:23;;;;;;;3.65;3.25;;;;;;;15.91;74.97;98272.33;1747451;82;21029;-80
2021/10/21 10:23:57;;;;;;;5.00;2.85;;;;;;;15.95;74.51;98274.90;1746542;82;21060;-80
2021/10/21 10:26:57;;;;;;;4.15;2.58;;;;;;;16.04;74.21;98264.12;1746992;82;21021;-80
2021/10/21 10:29:39;;;;;;;3.45;2.77;;;;;;;16.15;72.40;98272.86;1747257;81;21092;-81
2021/10/21 10:32:09;;;;;;;4.75;2.40;;;;;;;16.26;73.21;98266.18;1747212;81;21014;-80
2021/10/21 10:34:41;;;;;;;5.97;2.22;;;;;;;16.35;72.00;98265.81;1733932;81;21006;-80
2021/10/21 10:37:21;;;;;;;3.60;2.30;;;;;;;16.42;71.48;98239.23;1746816;81;21036;-81
2021/10/21 10:39:56;;;;;;;7.80;2.20;;;;;;;16.47;71.16;98223.98;1742743;82;21056;-80
2021/10/21 10:42:42;;;;;;;10.50;2.37;;;;;;;16.56;68.22;98253.39;1736197;82;21088;-81
2021/10/21 10:45:10;;;;;;;7.37;2.12;;;;;;;16.80;68.24;98242.21;1736252;82;21053;-82
2021/10/21 10:47:49;;;;;;;4.45;2.95;;;;;;;17.06;67.66;98249.42;1737350;82;21673;-81
2021/10/21 10:50:26;;;;;;;6.80;2.65;;;;;;;17.30;66.43;98243.19;1745292;82;21458;-81
2021/10/21 10:52:59;;;;;;;7.08;4.78;;;;;;;17.52;65.44;98247.80;1747126;81;20996;-82
2021/10/21 10:55:40;;;;;;;6.45;2.25;;;;;;;17.72;64.51;98251.27;1747316;81;21055;-83
2021/10/21 10:58:17;;;;;;;14.55;2.20;;;;;;;17.83;64.45;98277.02;1747092;81;21055;-82
2021/10/21 11:00:55;;;;;;;5.22;2.55;;;;;;;17.84;61.24;98264.02;1736889;82;21066;-81
2021/10/21 11:03:39;;;;;;;14.00;2.40;;;;;;;17.87;62.87;98272.42;1745518;81;21044;-81
2021/10/21 11:06:11;;;;;;;7.03;1.40;;;;;;;17.88;60.26;98269.23;1747156;82;21047;-82
2021/10/21 11:09:11;;;;;;;8.88;1.75;;;;;;;17.88;60.54;98293.24;1736466;82;21051;-82
2021/10/21 11:12:00;;;;;;;13.20;1.45;;;;;;;17.89;61.25;98291.69;1735651;81;21036;-84
2021/10/21 11:14:44;;;;;;;7.33;0.90;;;;;;;17.93;58.01;98298.76;1715887;83;21071;-84
2021/10/21 11:17:13;;;;;;;7.35;1.37;;;;;;;17.96;57.36;98313.84;1715903;83;21091;-84
2021/10/21 11:19:46;;;;;;;9.85;0.68;;;;;;;18.00;57.32;98286.25;1715644;83;21606;-82
2021/10/21 11:22:26;;;;;;;5.83;0.80;;;;;;;18.01;58.16;98287.88;1715800;82;21127;-82
2021/10/21 11:24:58;;;;;;;5.95;1.25;;;;;;;18.08;57.47;98287.86;1716098;83;21522;-84
2021/10/21 11:27:37;;;;;;;11.05;1.40;;;;;;;18.15;56.39;98323.36;1715667;83;21697;-84
2021/10/21 11:30:17;;;;;;;9.80;0.80;;;;;;;18.20;54.41;98304.36;1715424;83;21107;-83
2021/10/21 11:32:45;;;;;;;8.43;1.20;;;;;;;18.22;53.80;98320.97;1715905;83;21067;-85
2021/10/21 11:35:16;;;;;;;6.03;0.80;;;;;;;18.25;52.43;98326.41;1715990;83;21078;-85